createdAt,value
2018-11-14T00:01:13.774Z,9.70
2018-11-14T00:03:42.004Z,9.27
2018-11-14T00:06:10.178Z,9.67
2018-11-14T00:08:38.357Z,9.37
2018-11-14T00:11:06.658Z,9.37
2018-11-14T00:13:34.873Z,10.00
2018-11-14T00:16:03.046Z,10.77
2018-11-14T00:18:31.329Z,9.50
2018-11-14T00:20:59.550Z,9.80
2018-11-14T00:23:27.749Z,9.57
2018-11-14T00:25:55.990Z,9.80
2018-11-14T00:28:24.318Z,8.67
2018-11-14T00:30:52.533Z,10.50
2018-11-14T00:33:20.741Z,10.20
2018-11-14T00:35:49.267Z,9.50
2018-11-14T00:38:17.112Z,9.50
2018-11-14T00:40:45.389Z,9.87
2018-11-14T00:43:13.841Z,9.07
2018-11-14T00:45:42.062Z,10.20
2018-11-14T00:48:10.317Z,9.10
2018-11-14T00:50:38.545Z,9.93
2018-11-14T00:53:06.758Z,9.43
2018-11-14T00:55:35.241Z,9.43
2018-11-14T00:58:03.534Z,9.43
2018-11-14T01:00:31.776Z,9.63
2018-11-14T01:03:00.066Z,10.13
2018-11-14T01:05:28.506Z,10.93
2018-11-14T01:07:56.832Z,9.00
2018-11-14T01:10:25.167Z,9.20
2018-11-14T01:12:53.383Z,10.47
2018-11-14T01:15:22.683Z,8.60
2018-11-14T01:17:50.901Z,7.57
2018-11-14T01:20:20.519Z,8.60
2018-11-14T01:22:48.962Z,8.73
2018-11-14T01:25:17.931Z,8.00
2018-11-14T01:27:46.505Z,7.60
2018-11-14T01:30:17.840Z,10.40
2018-11-14T01:32:46.746Z,8.47
2018-11-14T01:35:15.527Z,8.13
2018-11-14T01:37:43.713Z,8.57
2018-11-14T01:40:17.704Z,8.50
2018-11-14T01:42:48.953Z,8.80
2018-11-14T01:45:17.113Z,7.83
2018-11-14T01:47:45.288Z,8.63
2018-11-14T01:50:13.433Z,8.90
2018-11-14T01:52:41.591Z,9.37
2018-11-14T01:55:11.756Z,7.43
2018-11-14T01:57:39.981Z,8.47
2018-11-14T02:00:10.742Z,7.70
2018-11-14T02:02:39.008Z,8.03
2018-11-14T02:05:07.924Z,7.90
2018-11-14T02:07:36.264Z,7.90
2018-11-14T02:10:06.253Z,7.40
2018-11-14T02:12:34.442Z,9.00
2018-11-14T02:15:02.601Z,8.60
2018-11-14T02:17:30.753Z,8.23
2018-11-14T02:19:58.904Z,7.60
2018-11-14T02:22:27.077Z,9.80
2018-11-14T02:24:55.253Z,8.17
2018-11-14T02:27:23.402Z,7.83
2018-11-14T02:29:51.789Z,8.23
2018-11-14T02:32:19.949Z,9.17
2018-11-14T02:34:48.113Z,9.10
2018-11-14T02:37:16.274Z,9.93
2018-11-14T02:39:44.438Z,8.63
2018-11-14T02:42:12.582Z,9.67
2018-11-14T02:44:40.765Z,8.60
2018-11-14T02:47:08.916Z,8.83
2018-11-14T02:49:37.201Z,8.93
2018-11-14T02:52:05.548Z,7.83
2018-11-14T02:54:33.701Z,8.53
2018-11-14T02:57:01.854Z,8.63
2018-11-14T02:59:30.005Z,9.43
2018-11-14T03:01:58.157Z,9.60
2018-11-14T03:04:26.330Z,8.43
2018-11-14T03:06:54.469Z,9.70
2018-11-14T03:09:23.110Z,7.80
2018-11-14T03:11:51.297Z,9.47
2018-11-14T03:14:19.456Z,8.07
2018-11-14T03:16:47.613Z,9.13
2018-11-14T03:19:15.787Z,10.00
2018-11-14T03:21:43.948Z,9.87
2018-11-14T03:24:12.097Z,9.70
2018-11-14T03:26:40.253Z,8.10
2018-11-14T03:29:08.421Z,10.77
2018-11-14T03:31:36.577Z,8.73
2018-11-14T03:34:05.213Z,8.37
2018-11-14T03:36:33.369Z,8.20
2018-11-14T03:39:01.521Z,8.13
2018-11-14T03:41:29.678Z,7.40
2018-11-14T03:43:57.850Z,7.23
2018-11-14T03:46:26.014Z,7.40
2018-11-14T03:48:54.181Z,8.50
2018-11-14T03:51:22.333Z,7.57
2018-11-14T03:53:50.514Z,8.10
2018-11-14T03:56:18.665Z,8.10
2018-11-14T03:58:46.840Z,8.17
2018-11-14T04:01:15.004Z,9.67
2018-11-14T04:03:43.175Z,8.30
2018-11-14T04:06:11.352Z,8.33
2018-11-14T04:08:39.557Z,8.20
2018-11-14T04:11:07.798Z,8.63
2018-11-14T04:13:36.056Z,9.03
2018-11-14T04:16:04.242Z,9.10
2018-11-14T04:18:32.543Z,8.60
2018-11-14T04:21:00.755Z,8.43
2018-11-14T04:23:28.942Z,9.50
2018-11-14T04:25:57.108Z,8.43
2018-11-14T04:28:25.263Z,8.90
2018-11-14T04:30:53.449Z,8.70
2018-11-14T04:39:14.473Z,9.00
2018-11-14T04:41:42.646Z,8.80
2018-11-14T04:44:10.809Z,8.67
2018-11-14T04:46:38.987Z,8.77
2018-11-14T04:49:07.159Z,9.70
2018-11-14T04:51:35.397Z,8.17
2018-11-14T04:54:03.590Z,9.20
2018-11-14T04:56:31.749Z,11.10
2018-11-14T04:58:59.922Z,9.90
2018-11-14T05:01:28.073Z,8.93
2018-11-14T05:03:56.216Z,9.33
2018-11-14T05:06:24.373Z,9.07
2018-11-14T05:08:52.769Z,9.53
2018-11-14T05:11:21.951Z,10.03
2018-11-14T05:13:49.906Z,10.53
2018-11-14T05:16:18.076Z,9.80
2018-11-14T05:18:46.237Z,10.23
2018-11-14T05:21:14.437Z,10.87
2018-11-14T05:23:42.599Z,9.63
2018-11-14T05:26:10.755Z,9.60
2018-11-14T05:28:39.010Z,10.40
2018-11-14T05:31:07.177Z,10.40
2018-11-14T05:33:35.349Z,10.70
2018-11-14T05:36:03.506Z,10.27
2018-11-14T05:38:31.677Z,11.20
2018-11-14T05:40:59.849Z,10.00
2018-11-14T05:43:28.074Z,10.27
2018-11-14T05:45:56.272Z,10.77
2018-11-14T05:48:24.416Z,11.10
2018-11-14T05:50:52.594Z,9.97
2018-11-14T05:53:20.762Z,10.83
2018-11-14T05:55:48.913Z,10.50
2018-11-14T05:58:17.076Z,10.50
2018-11-14T06:00:45.233Z,10.30
2018-11-14T06:03:13.372Z,9.30
2018-11-14T06:05:41.541Z,10.87
2018-11-14T06:08:09.694Z,9.83
2018-11-14T06:10:38.125Z,9.67
2018-11-14T06:13:06.278Z,11.10
2018-11-14T06:15:34.490Z,10.40
2018-11-14T06:18:02.641Z,14.10
2018-11-14T06:20:30.805Z,11.30
2018-11-14T06:22:59.018Z,10.47
2018-11-14T06:25:29.851Z,10.27
2018-11-14T06:27:58.726Z,8.90
2018-11-14T06:30:27.219Z,9.70
2018-11-14T06:32:55.893Z,10.30
2018-11-14T06:35:24.231Z,11.57
2018-11-14T06:37:52.964Z,11.33
2018-11-14T06:40:21.172Z,10.40
2018-11-14T06:42:52.172Z,8.67
2018-11-14T06:45:24.914Z,11.17
2018-11-14T06:47:54.369Z,10.70
2018-11-14T06:50:22.552Z,10.93
2018-11-14T06:52:52.042Z,10.13
2018-11-14T06:55:20.610Z,11.50
2018-11-14T06:57:48.789Z,12.43
2018-11-14T07:00:22.913Z,11.80
2018-11-14T07:02:53.669Z,11.30
2018-11-14T07:05:21.844Z,12.50
2018-11-14T07:07:50.018Z,10.60
2018-11-14T07:10:19.499Z,10.40
2018-11-14T07:12:47.646Z,10.50
2018-11-14T07:15:17.878Z,12.07
2018-11-14T07:17:46.631Z,12.00
2018-11-14T07:20:17.507Z,14.67
2018-11-14T07:22:45.689Z,15.00
2018-11-14T07:25:14.456Z,16.87
2018-11-14T07:27:42.698Z,15.50
2018-11-14T07:30:13.558Z,11.97
2018-11-14T07:32:46.857Z,11.27
2018-11-14T07:35:15.757Z,11.43
2018-11-14T07:38:01.564Z,11.00
2018-11-14T07:40:29.692Z,10.40
2018-11-14T07:42:57.897Z,10.00
2018-11-14T07:45:26.075Z,10.53
2018-11-14T07:47:54.234Z,10.23
2018-11-14T07:50:22.369Z,9.07
2018-11-14T07:52:50.529Z,8.83
2018-11-14T07:55:18.673Z,8.60
2018-11-14T07:57:46.841Z,8.63
2018-11-14T08:00:16.641Z,10.40
2018-11-14T08:02:45.137Z,7.73
2018-11-14T08:05:13.401Z,8.43
2018-11-14T08:07:41.959Z,8.00
2018-11-14T08:10:11.782Z,8.73
2018-11-14T08:12:39.977Z,9.07
2018-11-14T08:15:08.950Z,9.20
2018-11-14T08:17:37.104Z,9.97
2018-11-14T08:20:08.429Z,8.63
2018-11-14T08:22:36.566Z,8.97
2018-11-14T08:25:05.037Z,8.40
2018-11-14T08:27:33.181Z,8.17
2018-11-14T08:30:01.364Z,8.80
2018-11-14T08:32:29.530Z,8.20
2018-11-14T08:34:57.706Z,8.20
2018-11-14T08:37:25.848Z,8.23
2018-11-14T08:39:54.049Z,8.67
2018-11-14T08:42:22.234Z,8.43
2018-11-14T08:44:50.369Z,8.67
2018-11-14T08:47:18.514Z,8.13
2018-11-14T08:49:46.643Z,9.30
2018-11-14T08:52:14.780Z,8.30
2018-11-14T08:54:42.938Z,9.60
2018-11-14T08:57:11.065Z,9.90
2018-11-14T08:59:39.276Z,9.97
2018-11-14T09:02:07.429Z,9.87
2018-11-14T09:04:35.583Z,10.93
2018-11-14T09:07:03.753Z,10.07
2018-11-14T09:09:31.891Z,10.10
2018-11-14T09:12:00.042Z,11.13
2018-11-14T09:14:28.260Z,11.30
2018-11-14T09:16:56.321Z,9.73
2018-11-14T09:19:24.476Z,9.80
2018-11-14T09:21:52.634Z,11.30
2018-11-14T09:24:20.917Z,10.53
2018-11-14T09:26:49.237Z,10.63
2018-11-14T09:29:17.411Z,10.07
2018-11-14T09:31:45.559Z,10.30
2018-11-14T09:34:13.702Z,9.70
2018-11-14T09:36:41.843Z,11.80
2018-11-14T09:39:11.576Z,11.67
2018-11-14T09:41:39.751Z,11.43
2018-11-14T09:44:07.948Z,11.30
2018-11-14T09:46:36.433Z,11.60
2018-11-14T09:49:05.347Z,11.63
2018-11-14T09:51:33.665Z,11.00
2018-11-14T09:54:01.824Z,12.23
2018-11-14T09:56:30.035Z,10.50
2018-11-14T09:58:58.129Z,10.00
2018-11-14T10:01:26.270Z,9.47
2018-11-14T10:03:54.453Z,10.30
2018-11-14T10:06:22.613Z,10.27
2018-11-14T10:08:50.799Z,10.37
2018-11-14T10:11:18.926Z,11.00
2018-11-14T10:13:47.107Z,10.40
2018-11-14T10:16:15.241Z,11.50
2018-11-14T10:18:43.406Z,11.00
2018-11-14T10:21:11.688Z,10.53
2018-11-14T10:23:39.859Z,10.80
2018-11-14T10:26:08.021Z,11.27
2018-11-14T10:28:36.184Z,10.90
2018-11-14T10:31:04.394Z,9.87
2018-11-14T10:33:32.569Z,8.97
2018-11-14T10:36:00.720Z,9.97
2018-11-14T10:38:35.154Z,8.80
2018-11-14T10:41:03.297Z,8.30
2018-11-14T10:43:31.438Z,8.10
2018-11-14T10:45:59.585Z,9.50
2018-11-14T10:48:27.771Z,9.60
2018-11-14T10:50:56.013Z,10.67
2018-11-14T10:53:24.158Z,10.23
2018-11-14T10:55:52.312Z,10.53
2018-11-14T10:58:20.573Z,8.57
2018-11-14T11:00:52.881Z,8.93
2018-11-14T11:04:30.203Z,7.83
2018-11-14T11:07:03.666Z,8.17
2018-11-14T11:09:37.374Z,7.90
2018-11-14T11:12:11.097Z,6.77
2018-11-14T11:14:44.745Z,4.47
2018-11-14T11:17:18.144Z,4.33
2018-11-14T11:19:46.297Z,3.60
2018-11-14T11:22:14.434Z,3.37
2018-11-14T11:24:42.751Z,3.40
2018-11-14T11:27:10.914Z,4.30
2018-11-14T11:29:39.060Z,3.87
2018-11-14T11:32:07.299Z,2.67
2018-11-14T11:34:35.347Z,3.20
2018-11-14T11:37:03.477Z,3.63
2018-11-14T11:39:31.605Z,4.00
2018-11-14T11:41:59.735Z,4.00
2018-11-14T11:44:28.000Z,4.00
2018-11-14T11:46:56.063Z,3.60
2018-11-14T11:49:24.261Z,4.30
2018-11-14T11:51:52.393Z,3.83
2018-11-14T11:54:20.604Z,3.60
2018-11-14T11:56:48.756Z,4.00
2018-11-14T11:59:16.886Z,4.30
2018-11-14T12:01:45.014Z,3.83
2018-11-14T12:04:13.167Z,4.03
2018-11-14T12:06:41.298Z,3.70
2018-11-14T12:09:10.806Z,3.50
2018-11-14T12:11:38.953Z,3.10
2018-11-14T12:14:07.366Z,2.00
2018-11-14T12:16:35.526Z,2.40
2018-11-14T12:19:03.712Z,2.30
2018-11-14T12:21:31.821Z,2.13
2018-11-14T12:23:59.951Z,1.90
2018-11-14T12:26:28.082Z,1.90
2018-11-14T12:28:56.200Z,1.50
2018-11-14T12:31:24.353Z,1.77
2018-11-14T12:33:52.488Z,1.97
2018-11-14T12:36:20.621Z,1.90
2018-11-14T12:38:48.808Z,1.77
2018-11-14T12:41:16.883Z,2.50
2018-11-14T12:43:45.009Z,2.10
2018-11-14T12:46:13.137Z,2.67
2018-11-14T12:48:41.270Z,2.10
2018-11-14T12:51:09.404Z,1.90
2018-11-14T12:53:37.579Z,1.80
2018-11-14T12:56:05.747Z,1.70
2018-11-14T12:58:34.162Z,1.90
2018-11-14T13:01:02.309Z,1.83
2018-11-14T13:03:30.438Z,2.07
2018-11-14T13:05:58.625Z,1.80
2018-11-14T13:08:26.765Z,2.47
2018-11-14T13:10:54.894Z,1.97
2018-11-14T13:13:23.043Z,1.93
2018-11-14T13:15:51.177Z,1.60
2018-11-14T13:18:19.308Z,1.80
2018-11-14T13:20:47.463Z,1.80
2018-11-14T13:23:15.589Z,1.90
2018-11-14T13:25:43.725Z,2.27
2018-11-14T13:28:11.855Z,1.93
2018-11-14T13:30:39.997Z,1.80
2018-11-14T13:33:08.164Z,1.90
2018-11-14T13:35:36.299Z,1.80
2018-11-14T13:38:04.898Z,2.13
2018-11-14T13:40:33.053Z,1.93
2018-11-14T13:43:01.238Z,2.40
2018-11-14T13:45:29.363Z,2.70
2018-11-14T13:47:57.493Z,2.30
2018-11-14T13:50:25.739Z,1.97
2018-11-14T13:52:53.789Z,2.10
2018-11-14T13:55:21.961Z,2.40
2018-11-14T13:57:51.717Z,2.30
2018-11-14T14:00:21.201Z,1.97
2018-11-14T14:02:56.330Z,2.60
2018-11-14T14:05:26.066Z,2.10
2018-11-14T14:07:55.354Z,2.60
2018-11-14T14:10:23.523Z,2.30
2018-11-14T14:12:53.514Z,2.40
2018-11-14T14:15:23.933Z,3.13
2018-11-14T14:17:52.446Z,2.70
2018-11-14T14:20:21.191Z,2.73
2018-11-14T14:22:49.757Z,3.03
2018-11-14T14:25:19.174Z,6.47
2018-11-14T14:27:47.325Z,2.97
2018-11-14T14:30:16.763Z,3.37
2018-11-14T14:32:45.550Z,2.47
2018-11-14T14:35:16.722Z,2.27
2018-11-14T14:37:44.940Z,2.30
2018-11-14T14:40:14.550Z,2.00
2018-11-14T14:42:42.782Z,1.90
2018-11-14T14:45:12.064Z,2.30
2018-11-14T14:47:40.242Z,2.20
2018-11-14T14:50:11.545Z,2.67
2018-11-14T14:52:40.342Z,2.80
2018-11-14T14:55:15.085Z,2.93
2018-11-14T14:57:43.862Z,3.10
2018-11-14T15:00:13.968Z,2.10
2018-11-14T15:02:42.454Z,2.10
2018-11-14T15:05:11.597Z,2.33
2018-11-14T15:07:40.138Z,2.20
2018-11-14T15:10:10.651Z,1.87
2018-11-14T15:12:38.905Z,2.23
2018-11-14T15:15:07.072Z,2.20
2018-11-14T15:17:35.375Z,2.30
2018-11-14T15:20:04.027Z,2.30
2018-11-14T15:22:32.273Z,2.50
2018-11-14T15:25:00.375Z,2.60
2018-11-14T15:27:28.527Z,2.43
2018-11-14T15:29:56.658Z,1.90
2018-11-14T15:32:24.807Z,2.20
2018-11-14T15:34:52.967Z,2.00
2018-11-14T15:37:21.114Z,2.03
2018-11-14T15:39:49.269Z,2.00
2018-11-14T15:42:17.438Z,2.80
2018-11-14T15:44:45.588Z,2.57
2018-11-14T15:47:13.803Z,2.37
2018-11-14T15:49:41.977Z,2.90
2018-11-14T15:52:10.123Z,3.50
2018-11-14T15:54:38.285Z,2.70
2018-11-14T15:57:06.481Z,3.20
2018-11-14T15:59:34.669Z,3.00
2018-11-14T16:02:02.845Z,2.60
2018-11-14T16:04:30.980Z,2.80
2018-11-14T16:06:59.110Z,3.77
2018-11-14T16:09:27.294Z,3.47
2018-11-14T16:11:55.447Z,3.60
2018-11-14T16:14:23.569Z,3.93
2018-11-14T16:16:51.721Z,3.83
2018-11-14T16:19:19.865Z,4.77
2018-11-14T16:21:48.017Z,4.77
2018-11-14T16:24:16.205Z,4.90
2018-11-14T16:26:44.389Z,4.20
2018-11-14T16:29:12.521Z,4.00
2018-11-14T16:31:40.778Z,4.73
2018-11-14T16:34:09.350Z,5.33
2018-11-14T16:36:37.494Z,4.30
2018-11-14T16:39:09.158Z,6.40
2018-11-14T16:41:37.286Z,5.57
2018-11-14T16:44:05.752Z,5.40
2018-11-14T16:46:33.901Z,5.57
2018-11-14T16:49:02.047Z,5.57
2018-11-14T16:51:30.197Z,6.03
2018-11-14T16:53:58.333Z,5.97
2018-11-14T16:56:26.464Z,6.03
2018-11-14T16:58:54.614Z,6.97
2018-11-14T17:01:22.779Z,7.07
2018-11-14T17:03:51.249Z,5.80
2018-11-14T17:06:19.233Z,5.93
2018-11-14T17:08:47.369Z,6.80
2018-11-14T17:11:15.561Z,5.97
2018-11-14T17:13:43.721Z,6.90
2018-11-14T17:16:11.865Z,7.80
2018-11-14T17:18:40.021Z,7.53
2018-11-14T17:21:08.164Z,6.90
2018-11-14T17:23:36.310Z,7.80
2018-11-14T17:26:04.762Z,7.70
2018-11-14T17:28:32.888Z,8.53
2018-11-14T17:31:01.022Z,9.10
2018-11-14T17:33:29.190Z,9.97
2018-11-14T17:35:57.366Z,8.30
2018-11-14T17:38:25.497Z,9.70
2018-11-14T17:40:53.646Z,9.80
2018-11-14T17:43:21.818Z,10.70
2018-11-14T17:45:50.182Z,9.60
2018-11-14T17:48:18.419Z,10.87
2018-11-14T17:50:46.682Z,10.77
2018-11-14T17:53:14.889Z,11.30
2018-11-14T17:55:43.209Z,14.27
2018-11-14T17:58:11.422Z,13.30
2018-11-14T18:00:39.663Z,18.60
2018-11-14T18:03:07.948Z,14.93
2018-11-14T18:05:36.156Z,16.40
2018-11-14T18:08:04.628Z,14.03
2018-11-14T18:10:32.854Z,11.80
2018-11-14T18:13:02.051Z,11.77
2018-11-14T18:15:30.404Z,12.83
2018-11-14T18:17:58.968Z,11.67
2018-11-14T18:20:28.620Z,13.23
2018-11-14T18:22:57.118Z,12.10
2018-11-14T18:25:25.359Z,12.47
2018-11-14T18:27:53.762Z,13.03
2018-11-14T18:30:24.169Z,14.07
2018-11-14T18:32:53.111Z,12.80
2018-11-14T18:35:22.163Z,13.60
2018-11-14T18:37:51.309Z,13.43
2018-11-14T18:40:20.883Z,13.40
2018-11-14T18:42:49.175Z,15.57
2018-11-14T18:45:21.576Z,14.17
2018-11-14T18:47:49.998Z,13.83
2018-11-14T18:50:19.218Z,14.20
2018-11-14T18:52:47.919Z,13.90
2018-11-14T18:55:17.423Z,13.57
2018-11-14T18:57:45.872Z,13.47
2018-11-14T19:00:15.977Z,13.80
2018-11-14T19:02:44.341Z,14.40
2018-11-14T19:05:13.044Z,13.57
2018-11-14T19:07:41.668Z,14.33
2018-11-14T19:10:11.426Z,15.17
2018-11-14T19:12:40.244Z,14.40
2018-11-14T19:15:12.927Z,14.90
2018-11-14T19:17:41.470Z,13.60
2018-11-14T19:20:12.403Z,15.23
2018-11-14T19:22:40.673Z,13.60
2018-11-14T19:25:10.909Z,13.23
2018-11-14T19:27:39.189Z,13.70
2018-11-14T19:30:09.642Z,13.63
2018-11-14T19:32:37.904Z,14.50
2018-11-14T19:35:07.894Z,14.20
2018-11-14T19:37:36.211Z,13.60
2018-11-14T19:40:05.116Z,15.40
2018-11-14T19:42:33.316Z,14.13
2018-11-14T19:45:01.529Z,13.80
2018-11-14T19:47:29.839Z,13.63
2018-11-14T19:49:58.156Z,14.70
2018-11-14T19:52:26.428Z,15.40
2018-11-14T19:54:54.725Z,16.03
2018-11-14T19:57:22.944Z,14.60
2018-11-14T19:59:51.265Z,15.60
2018-11-14T20:02:19.510Z,13.40
2018-11-14T20:04:47.790Z,14.03
2018-11-14T20:07:16.012Z,13.83
2018-11-14T20:09:44.306Z,13.67
2018-11-14T20:12:12.564Z,15.53
2018-11-14T20:14:40.954Z,15.20
2018-11-14T20:17:09.244Z,14.03
2018-11-14T20:19:37.530Z,15.30
2018-11-14T20:22:05.793Z,14.80
2018-11-14T20:24:34.104Z,13.57
2018-11-14T20:27:02.339Z,15.30
2018-11-14T20:29:30.597Z,14.90
2018-11-14T20:31:58.952Z,16.00
2018-11-14T20:34:27.245Z,15.90
2018-11-14T20:36:55.519Z,14.80
2018-11-14T20:39:23.815Z,16.37
2018-11-14T20:41:52.094Z,13.50
2018-11-14T20:44:20.435Z,15.97
2018-11-14T20:46:48.683Z,15.57
2018-11-14T20:49:17.108Z,17.00
2018-11-14T20:51:45.311Z,16.07
2018-11-14T20:54:13.624Z,15.83
2018-11-14T20:56:42.026Z,14.60
2018-11-14T20:59:10.333Z,15.93
2018-11-14T21:01:38.511Z,15.30
2018-11-14T21:04:06.837Z,14.90
2018-11-14T21:06:35.181Z,16.50
2018-11-14T21:09:04.605Z,15.73
2018-11-14T21:11:32.890Z,15.77
2018-11-14T21:14:01.149Z,16.37
2018-11-14T21:16:29.542Z,14.80
2018-11-14T21:18:57.886Z,16.20
2018-11-14T21:21:26.117Z,15.33
2018-11-14T21:23:54.297Z,15.83
2018-11-14T21:26:22.549Z,15.53
2018-11-14T21:28:50.887Z,15.30
2018-11-14T21:31:19.212Z,15.70
2018-11-14T21:33:47.494Z,16.67
2018-11-14T21:36:15.823Z,17.23
2018-11-14T21:38:44.005Z,16.97
2018-11-14T21:41:12.298Z,17.60
2018-11-14T21:43:40.614Z,16.27
2018-11-14T21:46:08.995Z,18.20
2018-11-14T21:48:37.310Z,16.50
2018-11-14T21:51:05.661Z,16.80
2018-11-14T21:53:34.002Z,17.47
2018-11-14T21:56:02.294Z,17.23
2018-11-14T21:58:30.618Z,17.43
2018-11-14T22:00:58.952Z,16.73
2018-11-14T22:03:27.247Z,17.43
2018-11-14T22:05:55.530Z,16.23
2018-11-14T22:08:24.025Z,16.63
2018-11-14T22:10:52.302Z,20.23
2018-11-14T22:13:20.569Z,17.57
2018-11-14T22:15:50.906Z,17.40
2018-11-14T22:18:19.206Z,17.53
2018-11-14T22:20:47.502Z,18.83
2018-11-14T22:23:15.763Z,19.07
2018-11-14T22:25:44.050Z,17.50
2018-11-14T22:28:12.366Z,20.03
2018-11-14T22:30:41.552Z,20.20
2018-11-14T22:33:11.140Z,18.20
2018-11-14T22:35:39.538Z,17.60
2018-11-14T22:38:07.869Z,19.17
2018-11-14T22:43:47.677Z,17.17
2018-11-14T22:46:16.154Z,17.07
2018-11-14T22:48:44.422Z,17.07
2018-11-14T22:51:12.671Z,17.33
2018-11-14T22:53:40.878Z,17.30
2018-11-14T22:56:09.120Z,16.50
2018-11-14T22:58:37.273Z,15.90
2018-11-14T23:01:05.728Z,16.30
2018-11-14T23:03:33.904Z,17.30
2018-11-14T23:06:02.140Z,16.63
2018-11-14T23:08:30.323Z,16.97
2018-11-14T23:10:58.607Z,17.10
2018-11-14T23:13:26.845Z,17.60
2018-11-14T23:15:55.215Z,17.30
2018-11-14T23:18:23.371Z,17.87
2018-11-14T23:20:51.529Z,18.20
2018-11-14T23:23:19.773Z,15.83
2018-11-14T23:25:47.858Z,17.13
2018-11-14T23:28:16.035Z,17.30
2018-11-14T23:30:44.209Z,17.70
2018-11-14T23:33:12.366Z,17.50
2018-11-14T23:35:40.537Z,17.50
2018-11-14T23:38:08.685Z,16.10
2018-11-14T23:40:36.856Z,16.13
2018-11-14T23:43:05.138Z,17.53
2018-11-14T23:45:33.303Z,17.10
2018-11-14T23:48:01.447Z,16.93
2018-11-14T23:50:30.853Z,16.90
2018-11-14T23:53:00.065Z,16.50
2018-11-14T23:55:29.102Z,16.43
2018-11-14T23:57:57.521Z,18.00
